National Weather Service Raw Text Product

Displaying AFOS PIL: TAFFOD Received: 2018-02-09 17:38 UTC


768 
FTUS43 KDMX 091738
TAFFOD
TAF
KFOD 091738Z 0918/1018 02011KT P6SM SCT220
     FM092300 01008KT P6SM OVC110
     FM100400 36006KT P6SM VCSH OVC060
     FM100600 35005KT P6SM BKN070
     FM101500 32005KT P6SM BKN160=